createdAt,value
2023-05-10T00:02:18.249Z,12.65
2023-05-10T00:04:49.534Z,12.51
2023-05-10T00:07:18.114Z,12.64
2023-05-10T00:09:44.660Z,12.57
2023-05-10T00:12:11.271Z,12.47
2023-05-10T00:14:37.700Z,12.37
2023-05-10T00:17:04.130Z,12.36
2023-05-10T00:19:30.594Z,12.30
2023-05-10T00:21:57.376Z,12.35
2023-05-10T00:24:23.798Z,12.15
2023-05-10T00:26:50.306Z,12.32
2023-05-10T00:29:16.758Z,12.39
2023-05-10T00:31:43.231Z,12.09
2023-05-10T00:34:10.096Z,12.07
2023-05-10T00:36:36.458Z,12.23
2023-05-10T00:39:04.503Z,12.13
2023-05-10T00:41:33.721Z,12.20
2023-05-10T00:44:00.203Z,12.25
2023-05-10T00:46:26.862Z,12.21
2023-05-10T00:48:53.631Z,12.14
2023-05-10T00:51:20.054Z,12.17
2023-05-10T00:53:47.020Z,11.97
2023-05-10T00:56:14.029Z,12.26
2023-05-10T00:58:40.978Z,12.07
2023-05-10T01:01:07.969Z,11.98
2023-05-10T01:03:34.552Z,11.91
2023-05-10T01:06:01.185Z,12.07
2023-05-10T01:08:27.850Z,11.92
2023-05-10T01:10:54.780Z,11.64
2023-05-10T01:13:38.420Z,11.88
2023-05-10T01:16:05.443Z,11.80
2023-05-10T01:18:33.872Z,11.57
2023-05-10T01:21:12.423Z,11.73
2023-05-10T01:23:46.566Z,11.73
2023-05-10T01:26:40.574Z,11.49
2023-05-10T01:29:25.756Z,11.51
2023-05-10T01:32:01.330Z,11.60
2023-05-10T01:34:51.565Z,11.48
2023-05-10T01:51:45.747Z,10.96
2023-05-10T01:54:14.157Z,11.22
2023-05-10T01:56:48.946Z,11.45
2023-05-10T01:59:19.336Z,11.42
2023-05-10T02:01:48.040Z,11.62
2023-05-10T02:04:17.897Z,11.25
2023-05-10T02:06:48.957Z,11.33
2023-05-10T02:09:16.750Z,11.59
2023-05-10T02:11:44.642Z,11.44
2023-05-10T02:14:12.629Z,11.64
2023-05-10T02:16:41.155Z,11.50
2023-05-10T02:19:09.803Z,11.54
2023-05-10T02:21:37.326Z,11.69
2023-05-10T02:24:09.704Z,11.31
2023-05-10T02:26:39.106Z,11.29
2023-05-10T02:29:07.668Z,11.37
2023-05-10T02:31:36.267Z,11.66
2023-05-10T02:34:03.882Z,11.80
2023-05-10T02:36:30.865Z,11.54
2023-05-10T02:38:58.608Z,11.36
2023-05-10T02:41:27.373Z,11.62
2023-05-10T02:43:58.186Z,11.52
2023-05-10T02:46:26.875Z,11.20
2023-05-10T02:48:55.037Z,11.42
2023-05-10T02:51:28.469Z,11.41
2023-05-10T02:53:57.576Z,11.45
2023-05-10T02:56:34.242Z,11.49
2023-05-10T02:59:00.824Z,11.67
2023-05-10T03:01:27.337Z,11.55
2023-05-10T03:03:53.864Z,11.64
2023-05-10T03:06:20.342Z,11.32
2023-05-10T03:08:48.407Z,11.34
2023-05-10T03:11:33.665Z,11.21
2023-05-10T03:14:41.409Z,10.85
2023-05-10T03:17:16.589Z,10.87
2023-05-10T03:19:54.120Z,11.26
2023-05-10T03:22:33.344Z,11.06
2023-05-10T03:25:05.170Z,11.12
2023-05-10T03:27:32.468Z,11.18
2023-05-10T03:29:59.028Z,10.93
2023-05-10T03:32:25.687Z,11.22
2023-05-10T03:34:52.117Z,10.87
2023-05-10T03:37:18.563Z,10.88
2023-05-10T03:39:45.111Z,11.19
2023-05-10T03:42:12.986Z,11.21
2023-05-10T03:44:43.006Z,11.26
2023-05-10T03:47:09.755Z,11.09
2023-05-10T03:49:36.282Z,11.21
2023-05-10T03:52:02.727Z,10.90
2023-05-10T03:54:29.228Z,11.30
2023-05-10T03:56:55.747Z,10.80
2023-05-10T03:59:22.235Z,11.05
2023-05-10T04:01:48.720Z,11.33
2023-05-10T04:04:15.258Z,11.21
2023-05-10T04:06:41.771Z,10.99
2023-05-10T04:09:09.444Z,10.83
2023-05-10T04:11:36.034Z,10.84
2023-05-10T04:14:02.540Z,11.00
2023-05-10T04:16:29.005Z,11.18
2023-05-10T04:18:55.496Z,11.17
2023-05-10T04:21:21.967Z,11.09
2023-05-10T04:23:48.692Z,11.03
2023-05-10T04:26:15.220Z,11.15
2023-05-10T04:28:41.748Z,10.99
2023-05-10T04:31:20.779Z,11.19
2023-05-10T04:33:47.249Z,11.30
2023-05-10T04:36:13.760Z,11.31
2023-05-10T04:38:40.319Z,11.04
2023-05-10T04:41:08.774Z,11.42
2023-05-10T04:43:35.875Z,11.18
2023-05-10T04:46:02.398Z,11.41
2023-05-10T04:48:29.335Z,11.38
2023-05-10T04:50:55.945Z,11.52
2023-05-10T04:53:22.360Z,11.39
2023-05-10T04:55:49.129Z,11.22
2023-05-10T04:58:15.713Z,11.34
2023-05-10T05:00:42.685Z,11.48
2023-05-10T05:03:09.522Z,11.61
2023-05-10T05:05:36.106Z,11.59
2023-05-10T05:08:02.611Z,11.44
2023-05-10T05:10:29.116Z,11.43
2023-05-10T05:12:55.642Z,11.34
2023-05-10T05:15:44.681Z,11.84
2023-05-10T05:18:21.291Z,11.82
2023-05-10T05:20:47.706Z,11.86
2023-05-10T05:23:14.167Z,11.74
2023-05-10T05:25:40.666Z,11.85
2023-05-10T05:28:07.142Z,11.96
2023-05-10T05:30:33.717Z,11.89
2023-05-10T05:33:00.396Z,12.19
2023-05-10T05:35:27.095Z,12.14
2023-05-10T05:37:53.533Z,12.00
2023-05-10T05:40:21.366Z,12.29
2023-05-10T05:42:47.897Z,12.45
2023-05-10T05:45:14.713Z,12.65
2023-05-10T05:47:42.455Z,12.65
2023-05-10T05:50:10.746Z,12.29
2023-05-10T05:52:37.397Z,12.74
2023-05-10T05:55:04.730Z,12.73
2023-05-10T05:57:31.428Z,12.97
2023-05-10T05:59:58.101Z,12.80
2023-05-10T06:02:25.875Z,12.83
2023-05-10T06:04:55.930Z,12.80
2023-05-10T06:07:22.605Z,13.08
2023-05-10T06:09:50.265Z,13.34
2023-05-10T06:12:16.728Z,13.49
2023-05-10T06:14:43.210Z,13.56
2023-05-10T06:17:09.845Z,13.70
2023-05-10T06:19:36.731Z,13.47
2023-05-10T06:22:03.328Z,13.66
2023-05-10T06:24:29.937Z,13.56
2023-05-10T06:26:56.566Z,13.56
2023-05-10T06:29:23.272Z,13.63
2023-05-10T06:31:52.328Z,13.98
2023-05-10T06:34:19.007Z,13.66
2023-05-10T06:36:45.619Z,13.88
2023-05-10T06:39:13.098Z,13.79
2023-05-10T06:41:44.970Z,13.82
2023-05-10T06:44:11.642Z,13.91
2023-05-10T06:46:38.249Z,14.22
2023-05-10T06:49:05.529Z,13.94
2023-05-10T06:51:34.251Z,14.27
2023-05-10T06:54:01.207Z,14.33
2023-05-10T06:56:27.902Z,14.28
2023-05-10T06:58:54.472Z,14.44
2023-05-10T07:01:21.024Z,14.53
2023-05-10T07:03:47.511Z,15.11
2023-05-10T07:06:29.282Z,15.61
2023-05-10T07:08:59.141Z,16.27
2023-05-10T07:11:25.815Z,16.20
2023-05-10T07:13:52.252Z,16.78
2023-05-10T07:16:18.728Z,16.38
2023-05-10T07:18:45.692Z,16.09
2023-05-10T07:21:12.251Z,16.31
2023-05-10T07:23:38.787Z,16.30
2023-05-10T07:26:08.061Z,16.35
2023-05-10T07:28:38.667Z,16.27
2023-05-10T07:31:05.630Z,16.35
2023-05-10T07:33:32.153Z,17.09
2023-05-10T07:35:58.951Z,17.17
2023-05-10T07:38:25.703Z,16.97
2023-05-10T07:40:55.486Z,16.75
2023-05-10T07:43:22.301Z,16.74
2023-05-10T07:45:49.326Z,17.35
2023-05-10T07:48:16.125Z,17.95
2023-05-10T07:50:42.547Z,18.94
2023-05-10T07:53:11.624Z,19.04
2023-05-10T07:55:41.885Z,18.96
2023-05-10T07:58:08.318Z,20.34
2023-05-10T08:00:35.030Z,20.23
2023-05-10T08:03:01.628Z,19.36
2023-05-10T08:05:28.450Z,18.70
2023-05-10T08:07:54.859Z,18.31
2023-05-10T08:10:26.101Z,17.61
2023-05-10T08:12:53.087Z,17.10
2023-05-10T08:15:19.976Z,17.57
2023-05-10T08:17:46.879Z,17.62
2023-05-10T08:20:17.834Z,17.62
2023-05-10T08:22:44.396Z,17.42
2023-05-10T08:25:11.149Z,17.45
2023-05-10T08:27:37.971Z,17.52
2023-05-10T08:30:57.021Z,17.36
2023-05-10T08:33:23.788Z,17.76
2023-05-10T08:35:59.757Z,17.98
2023-05-10T08:38:27.090Z,18.06
2023-05-10T08:40:57.674Z,18.24
2023-05-10T08:43:29.337Z,18.56
2023-05-10T08:45:59.780Z,19.21
2023-05-10T08:48:30.595Z,19.38
2023-05-10T08:51:00.736Z,18.71
2023-05-10T08:53:28.441Z,18.98
2023-05-10T08:55:55.497Z,18.63
2023-05-10T08:58:22.045Z,18.78
2023-05-10T09:00:51.916Z,18.86
2023-05-10T09:03:19.893Z,18.63
2023-05-10T09:05:46.920Z,18.94
2023-05-10T09:08:15.472Z,18.91
2023-05-10T09:10:48.434Z,19.04
2023-05-10T09:13:16.665Z,19.10
2023-05-10T09:15:45.357Z,19.07
2023-05-10T09:18:12.263Z,18.91
2023-05-10T09:20:38.968Z,19.18
2023-05-10T09:23:06.100Z,18.82
2023-05-10T09:25:35.730Z,18.85
2023-05-10T09:28:02.620Z,19.46
2023-05-10T09:30:33.146Z,19.13
2023-05-10T09:33:00.912Z,19.14
2023-05-10T09:35:33.164Z,19.45
2023-05-10T09:38:03.429Z,19.49
2023-05-10T09:40:31.134Z,19.50
2023-05-10T09:43:07.304Z,19.46
2023-05-10T09:45:38.287Z,19.46
2023-05-10T09:48:08.108Z,19.20
2023-05-10T09:50:35.474Z,19.10
2023-05-10T09:53:04.772Z,19.24
2023-05-10T09:55:45.133Z,19.54
2023-05-10T09:58:14.714Z,19.32
2023-05-10T10:00:42.723Z,20.01
2023-05-10T10:03:18.423Z,19.95
2023-05-10T10:05:46.300Z,20.03
2023-05-10T10:08:13.827Z,20.09
2023-05-10T10:10:47.214Z,20.12
2023-05-10T10:13:14.252Z,20.00
2023-05-10T10:15:44.111Z,19.94
2023-05-10T10:18:14.492Z,19.95
2023-05-10T10:20:41.670Z,20.00
2023-05-10T10:23:09.127Z,20.38
2023-05-10T10:25:36.380Z,20.14
2023-05-10T10:28:17.398Z,20.58
2023-05-10T10:30:46.980Z,20.20
2023-05-10T10:33:34.828Z,20.62
2023-05-10T10:36:03.600Z,20.32
2023-05-10T10:39:00.256Z,20.27
2023-05-10T10:41:34.129Z,20.55
2023-05-10T10:44:26.825Z,20.76
2023-05-10T10:47:24.356Z,20.90
2023-05-10T10:49:53.188Z,20.80
2023-05-10T10:52:38.225Z,20.45
2023-05-10T10:55:12.719Z,20.40
2023-05-10T10:57:42.384Z,20.64
2023-05-10T11:00:29.165Z,20.91
2023-05-10T11:03:07.785Z,20.74
2023-05-10T11:05:35.529Z,20.90
2023-05-10T11:08:09.859Z,20.86
2023-05-10T11:10:38.017Z,20.77
2023-05-10T11:13:06.997Z,20.99
2023-05-10T11:15:49.683Z,21.41
2023-05-10T11:18:25.844Z,21.19
2023-05-10T11:20:57.506Z,20.72
2023-05-10T11:23:30.181Z,20.97
2023-05-10T11:25:56.889Z,21.06
2023-05-10T11:28:23.986Z,21.30
2023-05-10T11:30:50.914Z,20.85
2023-05-10T11:33:19.136Z,21.13
2023-05-10T11:35:45.868Z,20.97
2023-05-10T11:38:14.307Z,21.05
2023-05-10T11:40:41.940Z,21.13
2023-05-10T11:43:11.416Z,21.29
2023-05-10T11:51:49.708Z,21.60
2023-05-10T11:54:24.145Z,21.58
2023-05-10T12:16:16.830Z,21.98
2023-05-10T12:19:11.613Z,21.32
2023-05-10T12:22:46.261Z,21.45
2023-05-10T12:29:20.409Z,21.79
2023-05-10T12:39:04.130Z,21.69
2023-05-10T12:41:51.856Z,21.66
2023-05-10T13:03:52.632Z,22.09
2023-05-10T13:06:18.992Z,22.40
2023-05-10T13:08:51.008Z,22.43
2023-05-10T13:11:21.232Z,22.76
2023-05-10T13:13:47.876Z,22.25
2023-05-10T13:16:19.551Z,22.12
2023-05-10T13:18:46.161Z,22.48
2023-05-10T13:21:14.055Z,21.98
2023-05-10T13:23:43.410Z,21.98
2023-05-10T13:26:21.260Z,21.80
2023-05-10T13:38:25.975Z,22.74
2023-05-10T13:40:55.063Z,23.33
2023-05-10T13:43:23.162Z,22.99
2023-05-10T13:45:49.738Z,22.90
2023-05-10T13:48:16.639Z,23.24
2023-05-10T13:50:45.485Z,23.12
2023-05-10T13:53:12.361Z,22.94
2023-05-10T13:55:43.576Z,22.96
2023-05-10T13:59:17.914Z,23.27
2023-05-10T14:01:48.246Z,23.33
2023-05-10T14:04:14.809Z,23.18
2023-05-10T14:06:41.680Z,23.15
2023-05-10T14:09:22.557Z,23.19
2023-05-10T14:12:06.449Z,23.34
2023-05-10T14:14:33.582Z,23.38
2023-05-10T14:17:00.424Z,23.73
2023-05-10T14:19:35.032Z,23.15
2023-05-10T14:22:01.528Z,23.40
2023-05-10T14:24:28.036Z,23.47
2023-05-10T14:26:57.662Z,23.94
2023-05-10T14:29:24.485Z,23.94
2023-05-10T14:32:06.995Z,23.81
2023-05-10T14:34:33.889Z,23.78
2023-05-10T14:37:00.380Z,24.12
2023-05-10T14:39:26.816Z,23.75
2023-05-10T14:41:53.627Z,23.92
2023-05-10T14:44:20.495Z,23.71
2023-05-10T14:46:47.456Z,23.99
2023-05-10T14:49:23.350Z,23.46
2023-05-10T14:52:09.661Z,23.47
2023-05-10T14:54:36.239Z,23.33
2023-05-10T14:57:02.673Z,23.41
2023-05-10T14:59:29.179Z,23.93
2023-05-10T15:01:56.664Z,23.49
2023-05-10T15:04:28.366Z,23.42
2023-05-10T15:07:00.217Z,23.55
2023-05-10T15:09:28.554Z,23.52
2023-05-10T15:11:55.961Z,23.61
2023-05-10T15:14:23.520Z,23.59
2023-05-10T15:16:58.904Z,23.73
2023-05-10T15:19:25.439Z,22.99
2023-05-10T15:21:51.900Z,23.28
2023-05-10T15:24:19.333Z,23.16
2023-05-10T15:26:48.705Z,22.93
2023-05-10T15:29:20.973Z,22.84
2023-05-10T15:31:52.099Z,22.48
2023-05-10T15:34:22.211Z,22.56
2023-05-10T15:37:14.263Z,22.49
2023-05-10T15:39:41.864Z,22.01
2023-05-10T15:42:08.627Z,22.00
2023-05-10T15:44:36.229Z,21.60
2023-05-10T15:47:03.833Z,21.54
2023-05-10T15:49:31.442Z,21.76
2023-05-10T15:51:58.062Z,21.39
2023-05-10T15:54:24.523Z,21.49
2023-05-10T15:56:50.960Z,20.91
2023-05-10T15:59:17.471Z,20.92
2023-05-10T16:01:44.016Z,21.19
2023-05-10T16:04:10.481Z,20.67
2023-05-10T16:06:38.095Z,20.39
2023-05-10T16:09:04.880Z,20.72
2023-05-10T16:11:31.608Z,20.41
2023-05-10T16:19:54.365Z,20.03
2023-05-10T16:27:01.502Z,20.48
2023-05-10T16:33:30.537Z,20.38
2023-05-10T16:36:39.550Z,20.81
2023-05-10T16:54:43.044Z,20.46
2023-05-10T16:57:09.988Z,20.56
2023-05-10T16:59:36.914Z,20.37
2023-05-10T17:02:03.786Z,20.14
2023-05-10T17:04:34.066Z,20.24
2023-05-10T17:07:00.722Z,20.26
2023-05-10T17:09:27.314Z,20.44
2023-05-10T17:11:57.893Z,20.16
2023-05-10T17:14:30.350Z,20.13
2023-05-10T17:16:57.099Z,20.05
2023-05-10T17:19:26.303Z,20.25
2023-05-10T17:21:53.159Z,19.98
2023-05-10T17:24:19.618Z,19.93
2023-05-10T17:26:46.175Z,19.81
2023-05-10T17:29:14.142Z,19.82
2023-05-10T17:31:46.571Z,19.76
2023-05-10T17:34:13.141Z,19.76
2023-05-10T17:36:39.997Z,19.62
2023-05-10T17:39:14.478Z,19.74
2023-05-10T17:42:02.771Z,19.85
2023-05-10T17:44:36.821Z,19.50
2023-05-10T17:47:03.719Z,19.57
2023-05-10T17:49:30.458Z,19.29
2023-05-10T17:51:57.024Z,19.37
2023-05-10T17:54:29.504Z,19.15
2023-05-10T17:57:06.011Z,18.91
2023-05-10T17:59:41.823Z,18.96
2023-05-10T18:02:08.650Z,18.87
2023-05-10T18:04:37.848Z,19.18
2023-05-10T18:07:04.752Z,19.03
2023-05-10T18:09:31.869Z,19.14
2023-05-10T18:12:04.709Z,18.69
2023-05-10T18:14:40.738Z,18.79
2023-05-10T18:17:09.402Z,18.89
2023-05-10T18:19:36.234Z,18.76
2023-05-10T18:22:03.238Z,18.71
2023-05-10T18:27:09.175Z,18.53
2023-05-10T18:29:48.254Z,18.47
2023-05-10T18:32:15.008Z,18.27
2023-05-10T18:34:41.617Z,18.39
2023-05-10T18:37:09.697Z,18.05
2023-05-10T18:39:37.390Z,17.95
2023-05-10T18:42:05.316Z,18.18
2023-05-10T18:44:31.986Z,18.03
2023-05-10T18:46:59.421Z,18.07
2023-05-10T18:49:27.541Z,17.97
2023-05-10T18:52:00.628Z,17.84
2023-05-10T18:54:27.559Z,17.81
2023-05-10T18:56:54.257Z,17.78
2023-05-10T18:59:20.861Z,18.00
2023-05-10T19:01:49.476Z,17.85
2023-05-10T19:04:17.492Z,17.91
2023-05-10T19:06:44.360Z,17.74
2023-05-10T19:09:13.312Z,17.62
2023-05-10T19:11:41.126Z,17.68
2023-05-10T19:14:07.842Z,17.46
2023-05-10T19:16:34.738Z,17.43
2023-05-10T19:19:02.144Z,17.11
2023-05-10T19:21:29.199Z,16.93
2023-05-10T19:23:58.389Z,17.08
2023-05-10T19:26:25.051Z,17.06
2023-05-10T19:28:52.623Z,17.03
2023-05-10T19:31:20.219Z,16.99
2023-05-10T19:33:47.274Z,17.23
2023-05-10T19:36:13.993Z,17.10
2023-05-10T19:38:40.738Z,17.17
2023-05-10T19:41:07.412Z,17.09
2023-05-10T19:43:40.443Z,16.84
2023-05-10T19:46:09.032Z,16.82
2023-05-10T19:48:36.070Z,16.59
2023-05-10T19:51:08.651Z,16.81
2023-05-10T19:53:36.933Z,16.54
2023-05-10T19:56:07.335Z,16.68
2023-05-10T19:58:38.019Z,16.74
2023-05-10T20:01:11.338Z,16.79
2023-05-10T20:03:38.306Z,16.69
2023-05-10T20:06:05.465Z,16.71
2023-05-10T20:08:34.556Z,16.58
2023-05-10T20:11:04.062Z,16.82
2023-05-10T20:13:33.512Z,16.60
2023-05-10T20:16:00.567Z,16.76
2023-05-10T20:18:27.307Z,16.61
2023-05-10T20:20:54.943Z,16.83
2023-05-10T20:23:22.478Z,16.51
2023-05-10T20:25:51.683Z,16.46
2023-05-10T20:28:23.877Z,16.36
2023-05-10T20:30:55.002Z,16.41
2023-05-10T20:33:22.711Z,16.61
2023-05-10T20:35:50.377Z,16.45
2023-05-10T20:38:18.293Z,16.39
2023-05-10T20:40:44.954Z,16.28
2023-05-10T20:43:11.523Z,16.30
2023-05-10T20:45:38.120Z,16.28
2023-05-10T20:48:05.124Z,16.15
2023-05-10T20:50:31.799Z,16.10
2023-05-10T20:52:58.467Z,16.11
2023-05-10T20:55:25.020Z,15.91
2023-05-10T20:57:51.732Z,15.99
2023-05-10T21:00:18.613Z,16.24
2023-05-10T21:02:46.530Z,15.93
2023-05-10T21:05:13.229Z,15.94
2023-05-10T21:07:39.919Z,16.04
2023-05-10T21:10:08.213Z,16.14
2023-05-10T21:12:34.753Z,15.99
2023-05-10T21:15:01.296Z,15.99
2023-05-10T21:17:27.778Z,15.97
2023-05-10T21:19:54.329Z,15.85
2023-05-10T21:22:20.859Z,15.74
2023-05-10T21:24:47.347Z,15.51
2023-05-10T21:27:13.799Z,15.46
2023-05-10T21:29:40.294Z,15.59
2023-05-10T21:32:06.801Z,15.68
2023-05-10T21:34:33.780Z,15.63
2023-05-10T21:37:00.361Z,15.51
2023-05-10T21:39:26.844Z,15.46
2023-05-10T21:41:53.763Z,15.38
2023-05-10T21:44:20.268Z,14.88
2023-05-10T21:46:46.743Z,14.88
2023-05-10T21:49:13.237Z,15.11
2023-05-10T21:51:39.742Z,14.94
2023-05-10T21:54:06.358Z,14.73
2023-05-10T21:56:32.789Z,14.80
2023-05-10T21:58:59.261Z,14.73
2023-05-10T22:01:27.510Z,14.59
2023-05-10T22:03:54.125Z,14.76
2023-05-10T22:06:20.585Z,14.46
2023-05-10T22:08:47.044Z,14.53
2023-05-10T22:11:13.549Z,14.79
2023-05-10T22:13:40.040Z,14.87
2023-05-10T22:16:06.966Z,14.64
2023-05-10T22:18:33.463Z,14.78
2023-05-10T22:21:00.124Z,14.85
2023-05-10T22:23:26.621Z,14.80
2023-05-10T22:25:53.144Z,14.61
2023-05-10T22:28:19.654Z,14.65
2023-05-10T22:30:46.207Z,14.87
2023-05-10T22:33:12.714Z,15.04
2023-05-10T22:35:39.182Z,14.96
2023-05-10T22:38:05.631Z,15.05
2023-05-10T22:40:32.230Z,15.16
2023-05-10T22:42:58.763Z,14.95
2023-05-10T22:45:25.793Z,14.87
2023-05-10T22:47:52.454Z,14.91
2023-05-10T22:50:19.346Z,14.99
2023-05-10T22:52:46.374Z,14.93
2023-05-10T22:55:12.765Z,14.99
2023-05-10T22:57:39.287Z,14.89
2023-05-10T23:00:06.487Z,14.61
2023-05-10T23:02:33.194Z,14.73
2023-05-10T23:04:59.702Z,14.87
2023-05-10T23:07:26.185Z,15.08
2023-05-10T23:09:52.629Z,15.16
2023-05-10T23:12:19.166Z,15.08
2023-05-10T23:14:46.670Z,14.94
2023-05-10T23:17:13.592Z,15.02
2023-05-10T23:19:40.075Z,14.83
2023-05-10T23:22:06.583Z,14.90
2023-05-10T23:24:33.112Z,14.56
2023-05-10T23:26:59.572Z,14.60
2023-05-10T23:29:26.736Z,14.43
2023-05-10T23:31:53.424Z,14.59
2023-05-10T23:34:19.959Z,14.71
2023-05-10T23:36:46.550Z,14.86
2023-05-10T23:39:13.548Z,14.81
2023-05-10T23:41:40.021Z,14.84
2023-05-10T23:44:06.633Z,14.94
2023-05-10T23:46:33.057Z,14.97
2023-05-10T23:48:59.521Z,14.91
2023-05-10T23:51:26.092Z,14.82
2023-05-10T23:53:52.540Z,14.64
2023-05-10T23:56:19.004Z,14.65
2023-05-10T23:58:46.407Z,14.26
